Time;durP1;ratioP1;P1;durP2;ratioP2;P2;SDS_P1;SDS_P2;PMS_P1;PMS_P2;Temp;Humidity;BMP_temperature;BMP_pressure;BME280_temperature;BME280_humidity;BME280_pressure;Samples;Min_cycle;Max_cycle;Signal;HPM_P1;HPM_P2
2023/08/10 00:01:27;;;;;;;4.20;3.80;;;14.50;99.90;;;;;;6341769;22;20155;-45
2023/08/10 00:03:53;;;;;;;3.40;3.10;;;14.50;99.90;;;;;;6341159;22;20127;-45
2023/08/10 00:06:20;;;;;;;2.97;2.60;;;14.50;99.90;;;;;;6339154;22;20234;-46
2023/08/10 00:08:46;;;;;;;3.20;2.90;;;14.50;99.90;;;;;;6341435;22;20652;-47
2023/08/10 00:11:12;;;;;;;2.83;2.63;;;14.50;99.90;;;;;;6339210;22;20374;-46
2023/08/10 00:13:37;;;;;;;3.13;2.83;;;14.50;99.90;;;;;;6339589;22;20458;-47
2023/08/10 00:16:03;;;;;;;3.90;3.20;;;14.50;99.90;;;;;;6338320;22;20543;-47
2023/08/10 00:18:29;;;;;;;5.17;3.23;;;14.40;99.90;;;;;;6338832;22;20132;-44
2023/08/10 00:20:55;;;;;;;3.90;3.50;;;14.40;99.90;;;;;;6339566;22;20154;-44
2023/08/10 00:23:20;;;;;;;3.53;3.23;;;14.30;99.90;;;;;;6287033;22;20159;-44
2023/08/10 00:25:47;;;;;;;3.60;3.30;;;14.30;99.90;;;;;;6340658;22;20194;-44
2023/08/10 00:28:13;;;;;;;3.43;3.13;;;14.30;99.90;;;;;;6313833;22;20217;-44
2023/08/10 00:30:39;;;;;;;4.60;4.20;;;14.30;99.90;;;;;;6340914;22;20589;-44
2023/08/10 00:33:05;;;;;;;4.60;3.13;;;14.30;99.90;;;;;;6340168;22;20160;-44
2023/08/10 00:35:31;;;;;;;4.40;3.97;;;14.30;99.90;;;;;;6341079;22;20410;-44
2023/08/10 00:37:57;;;;;;;6.33;3.93;;;14.30;99.90;;;;;;6340768;22;20245;-44
2023/08/10 00:40:22;;;;;;;5.50;3.60;;;14.30;99.90;;;;;;6309139;22;20723;-44
2023/08/10 00:42:48;;;;;;;4.77;3.77;;;14.20;99.90;;;;;;6337325;22;20135;-44
2023/08/10 00:45:13;;;;;;;3.67;3.37;;;14.10;99.90;;;;;;6336186;22;20210;-44
2023/08/10 00:47:42;;;;;;;4.63;3.47;;;14.10;99.90;;;;;;6337691;22;20151;-44
2023/08/10 00:50:09;;;;;;;3.83;3.53;;;14.10;99.90;;;;;;6335820;22;20155;-44
2023/08/10 00:52:35;;;;;;;4.13;3.70;;;14.10;99.90;;;;;;6334787;22;20452;-44
2023/08/10 00:55:01;;;;;;;3.83;3.53;;;14.10;99.90;;;;;;6336268;22;20386;-44
2023/08/10 00:57:27;;;;;;;4.20;3.23;;;14.10;99.90;;;;;;6336887;22;20478;-44
2023/08/10 00:59:53;;;;;;;4.00;3.60;;;14.00;99.90;;;;;;6310533;22;20386;-44
2023/08/10 01:02:19;;;;;;;4.10;3.70;;;14.00;99.90;;;;;;6309504;22;20393;-44
2023/08/10 01:04:45;;;;;;;3.47;3.17;;;14.00;99.90;;;;;;6310442;22;20715;-45
2023/08/10 01:07:34;;;;;;;3.80;3.50;;;13.90;99.90;;;;;;6339963;22;20382;-45
2023/08/10 01:10:27;;;;;;;5.00;3.83;;;13.90;99.90;;;;;;6314353;22;20238;-45
2023/08/10 01:12:58;;;;;;;3.63;3.33;;;13.90;99.90;;;;;;6340183;22;20649;-45
2023/08/10 01:15:48;;;;;;;4.40;4.00;;;13.90;99.90;;;;;;6313894;22;20448;-45
2023/08/10 01:18:16;;;;;;;4.27;3.67;;;13.80;99.90;;;;;;6313318;22;20401;-45
2023/08/10 01:20:43;;;;;;;3.50;3.20;;;13.80;99.90;;;;;;6312475;22;20392;-45
2023/08/10 01:23:23;;;;;;;3.70;3.40;;;13.80;99.90;;;;;;6312695;22;20768;-45
2023/08/10 01:25:50;;;;;;;4.07;3.77;;;13.80;99.90;;;;;;6338707;22;20408;-45
2023/08/10 01:28:17;;;;;;;4.10;3.70;;;13.70;99.90;;;;;;6313088;22;20446;-45
2023/08/10 01:30:44;;;;;;;4.07;3.70;;;13.70;99.90;;;;;;6312246;22;20424;-45
2023/08/10 01:33:10;;;;;;;3.70;3.40;;;13.70;99.90;;;;;;6312643;22;20458;-45
2023/08/10 01:35:36;;;;;;;8.20;3.80;;;13.60;99.90;;;;;;6339960;22;20377;-45
2023/08/10 01:38:03;;;;;;;4.00;3.70;;;13.60;1.00;;;;;;6339529;22;20377;-45
2023/08/10 01:40:29;;;;;;;4.30;3.83;;;13.50;1.00;;;;;;6339763;22;20392;-45
2023/08/10 01:42:55;;;;;;;4.23;3.83;;;13.50;1.00;;;;;;6339223;22;20361;-45
2023/08/10 01:45:20;;;;;;;4.03;3.67;;;13.50;1.00;;;;;;6340641;22;20783;-45
2023/08/10 01:47:54;;;;;;;3.50;3.20;;;13.40;1.00;;;;;;6341359;22;20158;-45
2023/08/10 01:50:22;;;;;;;3.47;3.27;;;13.40;1.00;;;;;;6340285;22;20549;-45
2023/08/10 01:52:54;;;;;;;3.70;3.40;;;13.40;1.00;;;;;;6340377;22;20766;-43
2023/08/10 01:55:20;;;;;;;3.90;3.60;;;13.30;1.00;;;;;;6339145;22;20382;-44
2023/08/10 01:57:46;;;;;;;4.20;3.80;;;13.30;1.00;;;;;;6337985;22;20494;-45
2023/08/10 02:00:12;;;;;;;3.73;3.43;;;13.30;1.00;;;;;;6337744;22;20353;-45
2023/08/10 02:02:38;;;;;;;4.33;3.93;;;13.20;1.00;;;;;;6338238;22;20697;-45
2023/08/10 02:05:05;;;;;;;4.10;3.77;;;13.20;1.00;;;;;;6337724;22;20442;-45
2023/08/10 02:07:30;;;;;;;4.53;4.17;;;13.20;1.00;;;;;;6338960;22;20248;-45
2023/08/10 02:09:57;;;;;;;4.50;4.10;;;13.20;1.00;;;;;;6339602;22;20361;-45
2023/08/10 02:12:23;;;;;;;3.80;3.50;;;13.10;1.00;;;;;;6338102;22;20558;-44
2023/08/10 02:14:49;;;;;;;4.17;3.77;;;13.10;1.00;;;;;;6337813;22;20413;-44
2023/08/10 02:17:16;;;;;;;5.10;4.27;;;13.10;1.00;;;;;;6339547;22;20409;-44
2023/08/10 02:19:41;;;;;;;5.17;4.10;;;13.10;1.00;;;;;;6338647;22;20399;-44
2023/08/10 02:22:07;;;;;;;4.43;4.03;;;13.00;1.00;;;;;;6338827;22;20474;-44
2023/08/10 02:24:33;;;;;;;3.80;3.50;;;13.00;1.00;;;;;;6338708;22;20154;-44
2023/08/10 02:26:59;;;;;;;4.27;3.87;;;13.00;1.00;;;;;;6340532;22;20570;-44
2023/08/10 02:29:24;;;;;;;4.10;3.80;;;12.90;1.00;;;;;;6340262;22;20151;-44
2023/08/10 02:31:50;;;;;;;5.13;3.93;;;12.90;1.00;;;;;;6340661;22;20412;-44
2023/08/10 02:34:16;;;;;;;4.13;3.73;;;12.90;1.00;;;;;;6339613;22;20148;-44
2023/08/10 02:36:41;;;;;;;4.53;4.13;;;12.80;1.00;;;;;;6338852;22;20511;-44
2023/08/10 02:39:07;;;;;;;4.23;3.93;;;12.80;1.00;;;;;;6338908;22;20135;-44
2023/08/10 02:41:33;;;;;;;4.33;3.93;;;12.80;1.00;;;;;;6340718;22;20211;-44
2023/08/10 02:43:58;;;;;;;4.57;4.13;;;12.80;1.00;;;;;;6340869;22;20151;-44
2023/08/10 02:46:24;;;;;;;4.43;4.03;;;12.80;1.00;;;;;;6340355;22;20209;-45
2023/08/10 02:48:49;;;;;;;6.73;3.60;;;12.80;1.00;;;;;;6340322;22;20131;-44
2023/08/10 02:51:15;;;;;;;4.97;4.57;;;12.70;1.00;;;;;;6340008;22;20395;-44
2023/08/10 02:53:43;;;;;;;3.60;3.30;;;12.70;1.00;;;;;;6313598;22;20182;-45
2023/08/10 02:56:09;;;;;;;4.30;3.70;;;12.80;1.00;;;;;;6340405;22;20195;-44
2023/08/10 02:58:34;;;;;;;4.73;3.90;;;12.70;1.00;;;;;;6339809;22;20809;-44
2023/08/10 03:01:06;;;;;;;3.67;3.37;;;12.70;1.00;;;;;;6339635;22;20152;-44
2023/08/10 03:03:31;;;;;;;4.47;4.07;;;12.70;1.00;;;;;;6338993;22;20188;-46
2023/08/10 03:05:57;;;;;;;5.53;5.03;;;12.60;1.00;;;;;;6338897;22;20493;-44
2023/08/10 03:08:23;;;;;;;4.80;4.00;;;12.60;1.00;;;;;;6338484;22;20147;-44
2023/08/10 03:10:50;;;;;;;4.20;3.60;;;12.60;1.00;;;;;;6338712;22;20158;-45
2023/08/10 03:13:15;;;;;;;4.17;3.77;;;12.60;1.00;;;;;;6311725;22;20431;-44
2023/08/10 03:15:41;;;;;;;4.07;3.77;;;12.60;1.00;;;;;;6340229;22;20397;-44
2023/08/10 03:18:06;;;;;;;3.93;3.63;;;12.60;1.00;;;;;;6341296;22;20139;-45
2023/08/10 03:20:32;;;;;;;4.17;3.77;;;12.50;1.00;;;;;;6340713;22;20162;-45
2023/08/10 03:22:58;;;;;;;3.73;3.30;;;12.50;1.00;;;;;;6340570;22;20485;-44
2023/08/10 03:25:23;;;;;;;3.90;3.60;;;12.50;1.00;;;;;;6340673;22;20151;-44
2023/08/10 03:27:49;;;;;;;4.30;3.90;;;12.50;1.00;;;;;;6341071;22;20132;-45
2023/08/10 03:30:15;;;;;;;4.10;3.70;;;12.50;1.00;;;;;;6340159;22;20348;-45
2023/08/10 03:32:40;;;;;;;5.27;3.80;;;12.50;1.00;;;;;;6312055;22;20175;-44
2023/08/10 03:35:06;;;;;;;4.57;4.10;;;12.50;1.00;;;;;;6339382;22;20579;-45
2023/08/10 03:37:32;;;;;;;4.07;3.70;;;12.50;1.00;;;;;;6340368;22;20174;-45
2023/08/10 03:39:58;;;;;;;4.10;3.70;;;12.50;1.00;;;;;;6339694;22;20757;-44
2023/08/10 03:42:24;;;;;;;4.03;3.70;;;12.50;1.00;;;;;;6311926;22;20147;-44
2023/08/10 03:44:50;;;;;;;4.40;4.00;;;12.40;1.00;;;;;;6338980;22;20816;-45
2023/08/10 03:47:15;;;;;;;4.20;3.80;;;12.40;1.00;;;;;;6339807;22;20498;-44
2023/08/10 03:49:41;;;;;;;4.13;3.80;;;12.40;1.00;;;;;;6339605;22;20167;-44
2023/08/10 03:52:06;;;;;;;4.30;4.00;;;12.40;1.00;;;;;;6339964;22;20179;-45
2023/08/10 03:54:32;;;;;;;4.27;3.87;;;12.40;1.00;;;;;;6339946;22;20128;-45
2023/08/10 03:56:58;;;;;;;4.67;4.23;;;12.40;1.00;;;;;;6339781;22;20195;-45
2023/08/10 03:59:24;;;;;;;4.97;4.47;;;12.30;1.00;;;;;;6339205;22;20428;-45
2023/08/10 04:01:49;;;;;;;8.37;6.50;;;12.30;1.00;;;;;;6338122;22;20243;-45
2023/08/10 04:04:15;;;;;;;4.63;3.50;;;12.30;1.00;;;;;;6337908;22;20420;-44
2023/08/10 04:06:41;;;;;;;3.97;3.67;;;12.30;1.00;;;;;;6339267;22;20131;-45
2023/08/10 04:09:07;;;;;;;4.30;3.90;;;12.30;1.00;;;;;;6338209;22;20200;-45
2023/08/10 04:11:33;;;;;;;4.20;3.70;;;12.20;1.00;;;;;;6339046;22;20159;-44
2023/08/10 04:13:58;;;;;;;4.90;4.47;;;12.20;1.00;;;;;;6339314;22;20200;-44
2023/08/10 04:16:24;;;;;;;4.30;3.17;;;12.20;1.00;;;;;;6339231;22;20538;-45
2023/08/10 04:18:49;;;;;;;3.97;3.63;;;12.30;1.00;;;;;;6337801;22;20128;-44
2023/08/10 04:21:15;;;;;;;3.63;3.33;;;12.30;1.00;;;;;;6336483;22;20170;-44
2023/08/10 04:23:41;;;;;;;4.60;4.20;;;12.30;1.00;;;;;;6338880;22;20151;-44
2023/08/10 04:26:07;;;;;;;4.97;4.47;;;12.30;1.00;;;;;;6340155;22;20155;-44
2023/08/10 04:28:33;;;;;;;4.17;3.87;;;12.30;1.00;;;;;;6311401;22;20495;-44
2023/08/10 04:30:59;;;;;;;4.17;3.77;;;12.30;1.00;;;;;;6338059;22;20537;-44
2023/08/10 04:33:25;;;;;;;4.27;3.57;;;12.30;1.00;;;;;;6310135;22;20221;-45
2023/08/10 04:35:51;;;;;;;3.83;3.50;;;12.30;1.00;;;;;;6339546;22;20153;-45
2023/08/10 04:38:16;;;;;;;4.10;3.70;;;12.30;1.00;;;;;;6339051;22;20155;-44
2023/08/10 04:40:43;;;;;;;4.33;3.97;;;12.30;1.00;;;;;;6341038;22;20730;-44
2023/08/10 04:43:08;;;;;;;3.70;3.33;;;12.40;1.00;;;;;;6339948;22;20186;-44
2023/08/10 04:45:34;;;;;;;4.23;3.87;;;12.40;1.00;;;;;;6340578;22;20419;-44
2023/08/10 04:48:00;;;;;;;4.53;3.80;;;12.40;1.00;;;;;;6340941;22;20158;-45
2023/08/10 04:50:25;;;;;;;5.70;4.33;;;12.50;1.00;;;;;;6338178;22;20156;-45
2023/08/10 04:52:51;;;;;;;4.37;3.97;;;12.50;1.00;;;;;;6338068;22;20594;-45
2023/08/10 04:55:18;;;;;;;4.83;4.40;;;12.50;1.00;;;;;;6338472;22;20585;-45
2023/08/10 04:57:44;;;;;;;5.70;4.00;;;12.60;1.00;;;;;;6284539;22;20437;-44
2023/08/10 05:00:13;;;;;;;4.67;4.17;;;12.60;1.00;;;;;;6338175;22;20442;-45
2023/08/10 05:02:38;;;;;;;4.30;3.90;;;12.60;1.00;;;;;;6310541;22;20166;-45
2023/08/10 05:05:05;;;;;;;4.30;3.90;;;12.70;1.00;;;;;;6336860;22;20386;-44
2023/08/10 05:07:31;;;;;;;7.17;4.47;;;12.70;1.00;;;;;;6337937;22;20131;-45
2023/08/10 05:09:57;;;;;;;4.60;4.10;;;12.80;1.00;;;;;;6310467;22;20397;-44
2023/08/10 05:12:23;;;;;;;4.37;3.97;;;12.90;1.00;;;;;;6336941;22;20451;-45
2023/08/10 05:14:49;;;;;;;4.57;3.90;;;12.90;1.00;;;;;;6337579;22;20385;-45
2023/08/10 05:17:14;;;;;;;4.20;3.80;;;13.00;1.00;;;;;;6333998;22;20912;-45
2023/08/10 05:19:40;;;;;;;5.70;5.20;;;13.10;1.00;;;;;;6336010;22;20138;-45
2023/08/10 05:22:06;;;;;;;4.73;4.33;;;13.10;1.00;;;;;;6338763;22;20132;-45
2023/08/10 05:24:34;;;;;;;5.00;4.57;;;13.20;1.00;;;;;;6338835;22;20183;-44
2023/08/10 05:27:01;;;;;;;4.80;4.40;;;13.20;1.00;;;;;;6337095;22;20213;-45
2023/08/10 05:29:26;;;;;;;5.57;5.00;;;13.30;1.00;;;;;;6336819;22;20390;-45
2023/08/10 05:31:52;;;;;;;5.27;4.77;;;13.40;1.00;;;;;;6336646;22;20433;-45
2023/08/10 05:34:17;;;;;;;5.97;5.40;;;13.50;1.00;;;;;;6308151;22;20546;-45
2023/08/10 05:36:43;;;;;;;5.43;4.93;;;13.60;1.00;;;;;;6337228;22;20189;-45
2023/08/10 05:39:09;;;;;;;5.30;4.80;;;13.70;1.00;;;;;;6310073;22;20170;-45
2023/08/10 05:41:35;;;;;;;4.47;4.07;;;13.80;1.00;;;;;;6336023;22;20500;-45
2023/08/10 05:44:00;;;;;;;5.40;4.90;;;13.90;1.00;;;;;;6307556;22;20252;-45
2023/08/10 05:46:26;;;;;;;4.60;4.20;;;14.10;1.00;;;;;;6334327;22;20127;-45
2023/08/10 05:48:52;;;;;;;5.27;4.87;;;14.20;1.00;;;;;;6281003;22;20275;-45
2023/08/10 05:51:18;;;;;;;4.60;4.20;;;14.30;1.00;;;;;;6333817;22;20381;-45
2023/08/10 05:53:44;;;;;;;5.57;5.17;;;14.50;99.90;;;;;;6306584;22;20197;-45
2023/08/10 05:56:10;;;;;;;4.83;4.43;;;14.60;99.90;;;;;;6335426;22;20475;-45
2023/08/10 05:58:36;;;;;;;6.83;4.30;;;14.80;99.90;;;;;;6334561;22;20375;-45
2023/08/10 06:01:01;;;;;;;5.13;4.63;;;14.90;99.90;;;;;;6332662;22;20222;-45
2023/08/10 06:03:27;;;;;;;7.53;6.50;;;15.10;99.90;;;;;;6334780;22;20715;-45
2023/08/10 06:05:54;;;;;;;6.40;5.80;;;15.20;99.90;;;;;;6334696;22;20750;-45
2023/08/10 06:08:23;;;;;;;5.67;5.03;;;15.40;99.90;;;;;;6335594;22;20450;-46
2023/08/10 06:10:51;;;;;;;6.13;5.57;;;15.60;99.90;;;;;;6333829;22;20604;-45
2023/08/10 06:13:18;;;;;;;5.40;4.70;;;15.70;99.90;;;;;;6307058;22;20697;-45
2023/08/10 06:15:45;;;;;;;5.10;4.60;;;15.80;99.90;;;;;;6334693;22;20567;-45
2023/08/10 06:18:11;;;;;;;5.20;4.70;;;16.10;99.90;;;;;;6334681;22;20673;-45
2023/08/10 06:20:37;;;;;;;4.57;4.17;;;16.20;99.90;;;;;;6336068;22;20561;-45
2023/08/10 06:23:02;;;;;;;4.10;3.77;;;16.40;99.90;;;;;;6335054;22;20165;-44
2023/08/10 06:25:30;;;;;;;4.80;4.20;;;16.60;99.90;;;;;;6335518;22;20140;-44
2023/08/10 06:27:57;;;;;;;5.50;5.03;;;16.80;46.90;;;;;;6335393;22;20213;-44
2023/08/10 06:30:24;;;;;;;5.20;4.70;;;16.90;1.00;;;;;;6335712;22;20389;-44
2023/08/10 06:32:49;;;;;;;4.70;4.30;;;17.00;1.00;;;;;;6334935;22;20484;-44
2023/08/10 06:35:15;;;;;;;4.67;4.27;;;17.20;1.00;;;;;;6335575;22;20393;-45
2023/08/10 06:37:42;;;;;;;4.63;4.20;;;17.30;1.00;;;;;;6335980;22;20128;-44
2023/08/10 06:40:08;;;;;;;4.50;4.10;;;17.40;1.00;;;;;;6336420;22;20593;-44
2023/08/10 06:42:38;;;;;;;4.87;4.37;;;17.60;1.00;;;;;;6336531;22;20385;-44
2023/08/10 06:45:04;;;;;;;4.87;4.47;;;17.70;1.00;;;;;;6335311;22;20421;-45
2023/08/10 06:47:31;;;;;;;4.70;4.30;;;17.90;99.90;;;;;;6335184;22;20947;-44
2023/08/10 06:49:57;;;;;;;5.20;4.70;;;18.00;99.90;;;;;;6337264;22;20350;-44
2023/08/10 06:52:24;;;;;;;4.73;3.90;;;18.10;99.90;;;;;;6335907;22;20427;-44
2023/08/10 06:54:52;;;;;;;5.20;4.33;;;18.20;99.90;;;;;;6306502;22;20401;-44
2023/08/10 06:57:21;;;;;;;3.93;3.63;;;18.20;99.90;;;;;;6334502;22;20456;-44
2023/08/10 06:59:47;;;;;;;4.63;4.13;;;18.30;99.90;;;;;;6335386;22;20550;-44
2023/08/10 07:02:13;;;;;;;5.17;4.67;;;18.40;99.90;;;;;;6334697;22;20392;-44
2023/08/10 07:04:39;;;;;;;4.47;4.00;;;18.60;99.90;;;;;;6333865;22;20138;-44
2023/08/10 07:07:05;;;;;;;4.63;4.23;;;18.70;1.00;;;;;;6336109;22;20353;-44
2023/08/10 07:09:31;;;;;;;5.20;4.70;;;18.80;1.00;;;;;;6336571;22;20385;-42
2023/08/10 07:11:57;;;;;;;4.97;4.57;;;19.00;99.90;;;;;;6336817;22;20428;-44
2023/08/10 07:14:22;;;;;;;5.10;4.70;;;19.20;99.90;;;;;;6335714;22;20147;-43
2023/08/10 07:16:48;;;;;;;6.03;4.97;;;19.40;1.00;;;;;;6334238;22;20453;-44
2023/08/10 07:19:14;;;;;;;5.90;5.40;;;19.50;1.00;;;;;;6333465;22;20204;-44
2023/08/10 07:21:39;;;;;;;4.90;4.40;;;19.60;99.90;;;;;;6333704;22;20213;-45
2023/08/10 07:24:05;;;;;;;6.07;5.57;;;19.60;99.90;;;;;;6333161;22;20147;-44
2023/08/10 07:26:32;;;;;;;4.53;4.07;;;19.60;99.90;;;;;;6333800;22;20156;-44
2023/08/10 07:28:57;;;;;;;5.80;4.87;;;19.70;1.00;;;;;;6333680;22;20156;-44
2023/08/10 07:31:31;;;;;;;4.93;4.53;;;19.80;1.00;;;;;;6334272;22;20426;-44
2023/08/10 07:34:00;;;;;;;4.53;4.13;;;20.00;1.00;;;;;;6336397;22;20156;-47
2023/08/10 07:36:26;;;;;;;4.67;4.27;;;20.30;1.00;;;;;;6336513;22;20468;-47
2023/08/10 07:38:55;;;;;;;5.13;4.37;;;20.60;99.90;;;;;;6307652;22;20373;-48
2023/08/10 07:41:21;;;;;;;4.40;4.03;;;21.00;50.00;;;;;;6332718;22;20405;-45
2023/08/10 07:43:47;;;;;;;5.03;4.63;;;21.10;92.60;;;;;;6333226;22;20838;-45
2023/08/10 07:46:13;;;;;;;4.73;4.33;;;21.00;1.00;;;;;;6333978;22;20358;-46
2023/08/10 07:48:39;;;;;;;4.37;4.07;;;21.10;99.90;;;;;;6334941;22;20192;-44
2023/08/10 07:51:05;;;;;;;4.67;4.27;;;21.40;1.00;;;;;;6335022;22;20951;-43
2023/08/10 07:53:31;;;;;;;5.30;4.80;;;21.80;1.00;;;;;;6336182;22;20425;-44
2023/08/10 07:55:57;;;;;;;3.97;3.67;;;22.20;99.90;;;;;;6336788;22;20166;-44
2023/08/10 07:58:23;;;;;;;5.40;4.50;;;22.60;1.00;;;;;;6339725;22;20361;-45
2023/08/10 08:00:48;;;;;;;7.57;3.67;;;22.80;22.90;;;;;;6308901;22;20178;-44
2023/08/10 08:03:14;;;;;;;4.67;4.27;;;22.80;1.00;;;;;;6335459;22;20159;-45
2023/08/10 08:05:40;;;;;;;4.30;4.00;;;23.00;1.00;;;;;;6334894;22;20717;-45
2023/08/10 08:08:06;;;;;;;4.17;3.77;;;23.20;1.00;;;;;;6334254;22;20184;-45
2023/08/10 08:10:33;;;;;;;3.90;3.60;;;23.50;1.00;;;;;;6334932;22;20380;-45
2023/08/10 08:12:59;;;;;;;4.03;3.73;;;23.80;1.00;;;;;;6335111;22;21007;-44
2023/08/10 08:15:25;;;;;;;3.93;3.60;;;23.90;99.90;;;;;;6333986;22;20392;-47
2023/08/10 08:18:39;;;;;;;3.83;3.53;;;23.50;99.90;;;;;;6332794;22;20147;-44
2023/08/10 08:21:05;;;;;;;4.50;3.53;;;23.80;99.90;;;;;;6321157;22;20513;-44
2023/08/10 08:23:31;;;;;;;5.20;3.83;;;24.20;99.90;;;;;;6334311;22;20657;-44
2023/08/10 08:25:56;;;;;;;4.03;3.73;;;24.20;99.90;;;;;;6333995;22;20498;-45
2023/08/10 08:28:22;;;;;;;3.90;3.60;;;24.20;99.90;;;;;;6304632;22;20131;-45
2023/08/10 08:30:49;;;;;;;7.97;7.37;;;24.60;99.90;;;;;;6336128;22;20187;-45
2023/08/10 08:33:16;;;;;;;4.07;3.77;;;25.00;99.90;;;;;;6339140;22;20429;-45
2023/08/10 08:35:45;;;;;;;3.73;3.40;;;25.40;99.90;;;;;;6336303;22;20466;-45
2023/08/10 08:38:11;;;;;;;4.17;3.77;;;25.70;99.90;;;;;;6335076;22;20386;-45
2023/08/10 08:40:37;;;;;;;3.70;3.40;;;26.00;85.80;;;;;;6305997;22;20378;-44
2023/08/10 08:43:03;;;;;;;3.50;3.20;;;26.00;39.10;;;;;;6280107;22;20485;-45
2023/08/10 08:45:30;;;;;;;3.70;3.40;;;25.90;26.40;;;;;;6334227;22;20609;-45
2023/08/10 08:47:56;;;;;;;4.27;3.90;;;25.60;17.70;;;;;;6331639;22;20385;-45
2023/08/10 08:50:24;;;;;;;4.97;4.50;;;25.20;13.60;;;;;;6334474;22;20681;-45
2023/08/10 08:52:50;;;;;;;4.23;3.93;;;25.10;24.30;;;;;;6335018;22;20397;-45
2023/08/10 08:55:16;;;;;;;2.70;2.50;;;25.50;40.90;;;;;;6308928;22;20695;-44
2023/08/10 08:57:42;;;;;;;4.33;3.93;;;26.40;34.90;;;;;;6336375;22;20758;-45
2023/08/10 09:00:08;;;;;;;3.53;3.23;;;27.20;1.00;;;;;;6309480;22;20400;-44
2023/08/10 09:02:35;;;;;;;3.70;3.37;;;27.80;1.00;;;;;;6336746;22;20175;-44
2023/08/10 09:05:02;;;;;;;3.77;3.37;;;28.20;1.00;;;;;;6338444;22;20472;-44
2023/08/10 09:07:30;;;;;;;5.30;4.80;;;28.60;1.00;;;;;;6337860;22;20553;-44
2023/08/10 09:09:56;;;;;;;5.17;3.87;;;29.20;1.00;;;;;;6335315;22;20680;-44
2023/08/10 09:12:36;;;;;;;4.17;3.87;;;29.70;1.00;;;;;;6336811;22;20432;-44
2023/08/10 09:15:07;;;;;;;4.30;3.73;;;30.00;1.00;;;;;;6337734;22;20363;-44
2023/08/10 09:17:34;;;;;;;3.40;3.10;;;30.30;1.00;;;;;;6338249;22;20792;-45
2023/08/10 09:20:00;;;;;;;3.70;3.40;;;30.20;1.00;;;;;;6309347;22;20415;-44
2023/08/10 09:22:31;;;;;;;4.20;3.90;;;29.90;1.00;;;;;;6336589;22;20354;-47
2023/08/10 09:24:57;;;;;;;3.57;3.13;;;30.00;1.00;;;;;;6337148;22;20392;-44
2023/08/10 09:27:26;;;;;;;3.97;3.67;;;29.60;1.00;;;;;;6337063;22;20385;-45
2023/08/10 09:30:04;;;;;;;4.43;4.03;;;29.00;1.00;;;;;;6337220;22;20174;-44
2023/08/10 09:32:30;;;;;;;3.23;3.00;;;29.10;1.00;;;;;;6311583;22;20439;-45
2023/08/10 09:34:56;;;;;;;3.70;3.40;;;28.60;1.00;;;;;;6309457;22;20354;-45
2023/08/10 09:37:24;;;;;;;4.03;2.87;;;28.70;1.00;;;;;;6336890;22;20361;-45
2023/08/10 09:40:06;;;;;;;3.20;2.90;;;28.90;1.00;;;;;;6337598;22;20291;-45
2023/08/10 09:42:32;;;;;;;4.03;3.33;;;29.40;1.00;;;;;;6311542;22;20446;-45
2023/08/10 09:45:00;;;;;;;3.97;3.60;;;30.00;1.00;;;;;;6336774;22;20753;-45
2023/08/10 09:47:26;;;;;;;3.60;3.20;;;29.50;1.00;;;;;;6335188;22;20355;-45
2023/08/10 09:50:03;;;;;;;3.67;3.37;;;30.10;1.00;;;;;;6333748;22;20377;-45
2023/08/10 09:52:29;;;;;;;3.53;3.23;;;30.00;1.00;;;;;;6334618;22;20174;-45
2023/08/10 09:54:56;;;;;;;4.30;3.90;;;30.50;1.00;;;;;;6336231;22;20377;-44
2023/08/10 09:57:23;;;;;;;3.43;3.13;;;31.30;1.00;;;;;;6336174;22;20432;-45
2023/08/10 09:59:51;;;;;;;3.63;3.33;;;31.90;1.00;;;;;;6335427;22;20363;-45
2023/08/10 10:02:18;;;;;;;4.03;3.30;;;32.00;1.00;;;;;;6335264;22;20794;-45
2023/08/10 10:04:44;;;;;;;3.60;3.30;;;32.30;1.00;;;;;;6337834;22;20336;-45
2023/08/10 10:07:11;;;;;;;3.00;2.80;;;33.10;1.00;;;;;;6309200;22;20381;-45
2023/08/10 10:09:38;;;;;;;4.20;3.80;;;34.10;1.00;;;;;;6308606;22;20458;-45
2023/08/10 10:12:08;;;;;;;3.87;3.57;;;34.80;1.00;;;;;;6307744;22;20406;-44
2023/08/10 10:14:36;;;;;;;3.93;3.63;;;34.80;1.00;;;;;;6335371;22;20388;-45
2023/08/10 10:17:03;;;;;;;4.70;4.00;;;35.40;1.00;;;;;;6334247;22;20777;-45
2023/08/10 10:19:32;;;;;;;3.70;3.40;;;36.00;1.00;;;;;;6305077;22;20325;-45
2023/08/10 10:21:59;;;;;;;3.70;3.40;;;36.80;1.00;;;;;;6332604;22;20360;-45
2023/08/10 10:24:29;;;;;;;3.90;3.20;;;37.10;1.00;;;;;;6336109;22;20460;-45
2023/08/10 10:27:11;;;;;;;3.13;2.83;;;37.90;1.00;;;;;;6337261;22;20377;-45
2023/08/10 10:29:55;;;;;;;3.77;3.47;;;38.20;1.00;;;;;;6336445;22;20381;-45
2023/08/10 10:32:22;;;;;;;3.83;3.30;;;38.50;1.00;;;;;;6334610;22;20592;-45
2023/08/10 10:34:51;;;;;;;3.87;3.50;;;39.10;1.00;;;;;;6306841;22;20688;-45
2023/08/10 10:37:28;;;;;;;3.33;3.07;;;39.00;1.00;;;;;;6336019;22;20416;-45
2023/08/10 10:40:13;;;;;;;3.53;3.23;;;39.10;1.00;;;;;;6334154;22;20372;-43
2023/08/10 10:43:06;;;;;;;3.40;3.13;;;39.40;1.00;;;;;;6334567;22;20395;-44
2023/08/10 10:45:42;;;;;;;2.97;2.70;;;39.30;1.00;;;;;;6335397;22;20383;-44
2023/08/10 10:48:12;;;;;;;3.30;3.10;;;39.20;1.00;;;;;;6337406;22;20377;-44
2023/08/10 11:16:18;;;;;;;4.40;3.90;;;35.30;1.00;;;;;;6311798;22;20456;-42
2023/08/10 11:18:45;;;;;;;4.37;3.43;;;35.30;1.00;;;;;;6338154;22;20457;-40
2023/08/10 11:21:12;;;;;;;3.70;3.40;;;35.10;1.00;;;;;;6338657;22;20448;-43
2023/08/10 11:23:41;;;;;;;3.53;3.23;;;34.80;1.00;;;;;;6335779;22;20352;-39
2023/08/10 11:26:08;;;;;;;3.80;3.47;;;34.30;1.00;;;;;;6336141;22;20352;-38
2023/08/10 11:28:37;;;;;;;4.00;3.70;;;34.10;1.00;;;;;;6309535;22;20377;-39
2023/08/10 11:31:04;;;;;;;3.60;3.20;;;33.40;1.00;;;;;;6308769;22;20396;-39
2023/08/10 11:33:29;;;;;;;3.80;3.50;;;32.20;1.00;;;;;;6335904;22;20412;-40
2023/08/10 11:35:56;;;;;;;4.17;3.70;;;31.80;1.00;;;;;;6335854;22;20380;-38
2023/08/10 11:38:23;;;;;;;3.67;3.37;;;31.50;1.00;;;;;;6337904;22;20514;-39
2023/08/10 11:40:48;;;;;;;3.90;3.60;;;31.20;1.00;;;;;;6312389;22;20388;-41
2023/08/10 11:43:19;;;;;;;4.07;3.70;;;30.80;1.00;;;;;;6336501;22;20360;-39
2023/08/10 11:45:45;;;;;;;3.83;3.43;;;30.70;1.00;;;;;;6309386;22;20226;-42
2023/08/10 11:48:15;;;;;;;3.47;3.17;;;31.00;1.00;;;;;;6307154;22;20342;-44
2023/08/10 11:50:43;;;;;;;3.60;3.30;;;31.70;1.00;;;;;;6332880;22;20385;-44
2023/08/10 11:53:18;;;;;;;4.07;3.67;;;32.60;1.00;;;;;;6332472;22;20431;-41
2023/08/10 11:55:46;;;;;;;4.30;3.77;;;33.30;1.00;;;;;;6333448;22;20659;-42
2023/08/10 11:58:13;;;;;;;4.13;3.73;;;33.80;1.00;;;;;;6305022;22;20468;-43
2023/08/10 12:00:41;;;;;;;3.37;3.07;;;34.20;1.00;;;;;;6334365;22;20320;-42
2023/08/10 12:03:14;;;;;;;3.67;3.37;;;33.90;1.00;;;;;;6335157;22;20908;-41
2023/08/10 12:05:44;;;;;;;3.53;3.23;;;34.10;1.00;;;;;;6333613;22;20618;-42
2023/08/10 12:08:23;;;;;;;3.63;3.33;;;34.30;1.00;;;;;;6309656;22;20746;-41
2023/08/10 12:11:09;;;;;;;3.47;3.17;;;34.40;1.00;;;;;;6338764;22;20671;-43
2023/08/10 12:13:45;;;;;;;3.47;3.27;;;34.50;1.00;;;;;;6335311;22;20828;-43
2023/08/10 12:16:11;;;;;;;3.10;2.90;;;34.70;1.00;;;;;;6308963;22;20435;-42
2023/08/10 12:18:37;;;;;;;3.17;2.80;;;34.90;1.00;;;;;;6337579;22;20356;-41
2023/08/10 12:21:03;;;;;;;4.00;3.57;;;34.80;1.00;;;;;;6337791;22;20780;-41
2023/08/10 12:23:29;;;;;;;3.50;3.20;;;35.10;1.00;;;;;;6338119;22;20151;-41
2023/08/10 12:25:55;;;;;;;3.33;3.13;;;34.90;1.00;;;;;;6309557;22;20397;-42
2023/08/10 12:28:20;;;;;;;3.73;3.43;;;34.70;1.00;;;;;;6335338;22;20397;-43
2023/08/10 12:30:46;;;;;;;4.20;3.00;;;34.00;1.00;;;;;;6281194;22;20427;-40
2023/08/10 12:33:12;;;;;;;3.40;2.90;;;33.90;1.00;;;;;;6308520;22;20204;-41
2023/08/10 12:35:38;;;;;;;3.70;3.40;;;34.10;1.00;;;;;;6310807;22;20421;-43
2023/08/10 12:38:09;;;;;;;3.37;3.07;;;34.00;1.00;;;;;;6339500;22;20418;-42
2023/08/10 12:40:36;;;;;;;4.40;4.00;;;34.40;1.00;;;;;;6311648;22;20363;-40
2023/08/10 12:43:03;;;;;;;6.40;3.60;;;34.90;1.00;;;;;;6336702;22;20368;-40
2023/08/10 12:45:28;;;;;;;4.40;4.00;;;35.30;1.00;;;;;;6281716;22;20381;-40
2023/08/10 12:47:59;;;;;;;4.70;4.00;;;35.50;1.00;;;;;;6335375;22;20359;-40
2023/08/10 12:50:25;;;;;;;4.50;3.90;;;35.60;1.00;;;;;;6335234;22;20522;-40
2023/08/10 12:56:12;;;;;;;3.83;3.50;;;35.20;1.00;;;;;;6333937;22;20419;-44
2023/08/10 12:58:39;;;;;;;3.87;3.50;;;35.50;1.00;;;;;;6336186;22;20658;-41
2023/08/10 13:01:04;;;;;;;3.00;2.80;;;35.80;1.00;;;;;;6338038;22;20127;-40
2023/08/10 13:03:32;;;;;;;3.70;3.33;;;35.60;1.00;;;;;;6336217;22;20454;-42
2023/08/10 13:05:58;;;;;;;3.60;3.30;;;35.20;1.00;;;;;;6308611;22;20265;-41
2023/08/10 13:08:23;;;;;;;3.20;3.00;;;35.30;1.00;;;;;;6334671;22;20575;-41
2023/08/10 13:14:14;;;;;;;4.47;3.80;;;36.20;1.00;;;;;;6332768;22;20582;-41
2023/08/10 13:16:40;;;;;;;3.83;3.53;;;36.50;1.00;;;;;;6309192;22;20381;-42
2023/08/10 13:19:08;;;;;;;3.40;3.10;;;36.60;1.00;;;;;;6304976;22;20367;-39
2023/08/10 13:21:35;;;;;;;3.60;3.27;;;36.60;1.00;;;;;;6332213;22;20124;-41
2023/08/10 13:24:01;;;;;;;3.90;3.50;;;36.60;1.00;;;;;;6333051;22;20395;-38
2023/08/10 13:26:27;;;;;;;5.27;3.50;;;36.80;1.00;;;;;;6308049;22;20394;-41